sensor_id;sensor_type;location;lat;lon;timestamp;P1;durP1;ratioP1;P2;durP2;ratioP2
826;SDS011;395;48.132;11.608;2023-03-04T00:01:45;56.97;;;34.30;;
826;SDS011;395;48.132;11.608;2023-03-04T00:04:11;63.50;;;34.77;;
826;SDS011;395;48.132;11.608;2023-03-04T00:06:37;58.23;;;33.07;;
826;SDS011;395;48.132;11.608;2023-03-04T00:09:02;59.77;;;33.07;;
826;SDS011;395;48.132;11.608;2023-03-04T00:11:29;52.73;;;32.90;;
826;SDS011;395;48.132;11.608;2023-03-04T00:13:55;55.33;;;34.65;;
826;SDS011;395;48.132;11.608;2023-03-04T00:16:21;54.83;;;33.90;;
826;SDS011;395;48.132;11.608;2023-03-04T00:18:51;55.50;;;33.92;;
826;SDS011;395;48.132;11.608;2023-03-04T00:21:19;57.33;;;31.95;;
826;SDS011;395;48.132;11.608;2023-03-04T00:23:45;48.50;;;31.00;;
826;SDS011;395;48.132;11.608;2023-03-04T00:26:10;57.93;;;32.70;;
826;SDS011;395;48.132;11.608;2023-03-04T00:28:37;55.75;;;34.58;;
826;SDS011;395;48.132;11.608;2023-03-04T00:31:04;54.85;;;34.08;;
826;SDS011;395;48.132;11.608;2023-03-04T00:33:30;51.47;;;32.20;;
826;SDS011;395;48.132;11.608;2023-03-04T00:35:55;55.07;;;32.40;;
826;SDS011;395;48.132;11.608;2023-03-04T00:38:21;56.27;;;33.00;;
826;SDS011;395;48.132;11.608;2023-03-04T00:40:47;58.90;;;33.77;;
826;SDS011;395;48.132;11.608;2023-03-04T00:43:12;54.43;;;32.63;;
826;SDS011;395;48.132;11.608;2023-03-04T00:45:38;55.90;;;32.30;;
826;SDS011;395;48.132;11.608;2023-03-04T00:48:04;56.47;;;32.43;;
826;SDS011;395;48.132;11.608;2023-03-04T00:50:29;54.50;;;32.07;;
826;SDS011;395;48.132;11.608;2023-03-04T00:52:55;53.37;;;31.60;;
826;SDS011;395;48.132;11.608;2023-03-04T00:55:21;51.53;;;32.90;;
826;SDS011;395;48.132;11.608;2023-03-04T00:57:46;49.50;;;29.83;;
826;SDS011;395;48.132;11.608;2023-03-04T01:00:12;53.63;;;33.30;;
826;SDS011;395;48.132;11.608;2023-03-04T01:02:38;49.80;;;31.13;;
826;SDS011;395;48.132;11.608;2023-03-04T01:05:04;53.47;;;32.37;;
826;SDS011;395;48.132;11.608;2023-03-04T01:07:30;54.53;;;32.28;;
826;SDS011;395;48.132;11.608;2023-03-04T01:09:56;56.13;;;30.97;;
826;SDS011;395;48.132;11.608;2023-03-04T01:12:22;49.27;;;29.77;;
826;SDS011;395;48.132;11.608;2023-03-04T01:14:47;54.37;;;32.27;;
826;SDS011;395;48.132;11.608;2023-03-04T01:17:13;51.80;;;30.37;;
826;SDS011;395;48.132;11.608;2023-03-04T01:19:39;45.40;;;29.80;;
826;SDS011;395;48.132;11.608;2023-03-04T01:22:04;52.97;;;30.53;;
826;SDS011;395;48.132;11.608;2023-03-04T01:24:30;51.83;;;33.43;;
826;SDS011;395;48.132;11.608;2023-03-04T01:26:56;51.47;;;31.20;;
826;SDS011;395;48.132;11.608;2023-03-04T01:29:21;53.07;;;31.57;;
826;SDS011;395;48.132;11.608;2023-03-04T01:31:47;57.90;;;32.03;;
826;SDS011;395;48.132;11.608;2023-03-04T01:34:12;50.87;;;31.30;;
826;SDS011;395;48.132;11.608;2023-03-04T01:36:38;50.13;;;31.13;;
826;SDS011;395;48.132;11.608;2023-03-04T01:39:04;47.27;;;29.93;;
826;SDS011;395;48.132;11.608;2023-03-04T01:41:30;48.13;;;30.08;;
826;SDS011;395;48.132;11.608;2023-03-04T01:43:56;49.00;;;31.10;;
826;SDS011;395;48.132;11.608;2023-03-04T01:46:24;55.75;;;32.50;;
826;SDS011;395;48.132;11.608;2023-03-04T01:48:50;50.78;;;30.83;;
826;SDS011;395;48.132;11.608;2023-03-04T01:51:17;48.22;;;29.63;;
826;SDS011;395;48.132;11.608;2023-03-04T01:53:45;51.75;;;30.35;;
826;SDS011;395;48.132;11.608;2023-03-04T01:59:09;49.03;;;30.45;;
826;SDS011;395;48.132;11.608;2023-03-04T02:01:44;50.05;;;30.48;;
826;SDS011;395;48.132;11.608;2023-03-04T02:04:12;51.42;;;30.70;;
826;SDS011;395;48.132;11.608;2023-03-04T02:06:40;49.10;;;31.33;;
826;SDS011;395;48.132;11.608;2023-03-04T02:09:06;52.15;;;31.60;;
826;SDS011;395;48.132;11.608;2023-03-04T02:11:33;51.35;;;32.58;;
826;SDS011;395;48.132;11.608;2023-03-04T02:14:00;53.70;;;31.23;;
826;SDS011;395;48.132;11.608;2023-03-04T02:16:26;50.95;;;30.73;;
826;SDS011;395;48.132;11.608;2023-03-04T02:18:52;50.30;;;29.30;;
826;SDS011;395;48.132;11.608;2023-03-04T02:21:22;55.17;;;31.30;;
826;SDS011;395;48.132;11.608;2023-03-04T02:23:57;47.97;;;30.52;;
826;SDS011;395;48.132;11.608;2023-03-04T02:26:40;51.88;;;31.10;;
826;SDS011;395;48.132;11.608;2023-03-04T02:29:08;48.40;;;29.63;;
826;SDS011;395;48.132;11.608;2023-03-04T02:31:35;51.53;;;31.17;;
826;SDS011;395;48.132;11.608;2023-03-04T02:34:10;51.45;;;31.42;;
826;SDS011;395;48.132;11.608;2023-03-04T02:36:39;49.13;;;30.33;;
826;SDS011;395;48.132;11.608;2023-03-04T02:39:09;50.13;;;30.17;;
826;SDS011;395;48.132;11.608;2023-03-04T02:41:50;48.03;;;29.98;;
826;SDS011;395;48.132;11.608;2023-03-04T02:44:18;50.53;;;30.80;;
826;SDS011;395;48.132;11.608;2023-03-04T02:46:47;45.83;;;29.23;;
826;SDS011;395;48.132;11.608;2023-03-04T02:49:14;47.67;;;28.55;;
826;SDS011;395;48.132;11.608;2023-03-04T02:51:40;49.33;;;28.40;;
826;SDS011;395;48.132;11.608;2023-03-04T02:54:15;45.27;;;29.27;;
826;SDS011;395;48.132;11.608;2023-03-04T02:56:43;51.83;;;29.52;;
826;SDS011;395;48.132;11.608;2023-03-04T02:59:10;52.50;;;30.13;;
826;SDS011;395;48.132;11.608;2023-03-04T03:01:36;46.40;;;28.00;;
826;SDS011;395;48.132;11.608;2023-03-04T03:04:02;46.60;;;29.60;;
826;SDS011;395;48.132;11.608;2023-03-04T03:06:27;49.47;;;29.00;;
826;SDS011;395;48.132;11.608;2023-03-04T03:08:53;51.13;;;28.53;;
826;SDS011;395;48.132;11.608;2023-03-04T03:11:19;51.53;;;31.80;;
826;SDS011;395;48.132;11.608;2023-03-04T03:13:44;49.10;;;28.57;;
826;SDS011;395;48.132;11.608;2023-03-04T03:16:10;44.17;;;29.00;;
826;SDS011;395;48.132;11.608;2023-03-04T03:18:36;47.20;;;29.13;;
826;SDS011;395;48.132;11.608;2023-03-04T03:21:01;45.90;;;27.90;;
826;SDS011;395;48.132;11.608;2023-03-04T03:23:27;44.13;;;29.70;;
826;SDS011;395;48.132;11.608;2023-03-04T03:25:52;44.73;;;26.97;;
826;SDS011;395;48.132;11.608;2023-03-04T03:28:18;46.30;;;30.10;;
826;SDS011;395;48.132;11.608;2023-03-04T03:30:44;45.90;;;29.20;;
826;SDS011;395;48.132;11.608;2023-03-04T03:33:09;48.10;;;29.20;;
826;SDS011;395;48.132;11.608;2023-03-04T03:35:35;50.73;;;30.27;;
826;SDS011;395;48.132;11.608;2023-03-04T03:38:00;48.27;;;30.57;;
826;SDS011;395;48.132;11.608;2023-03-04T03:40:26;49.03;;;29.97;;
826;SDS011;395;48.132;11.608;2023-03-04T03:42:52;47.17;;;30.30;;
826;SDS011;395;48.132;11.608;2023-03-04T03:45:17;50.07;;;30.80;;
826;SDS011;395;48.132;11.608;2023-03-04T03:47:43;45.37;;;28.87;;
826;SDS011;395;48.132;11.608;2023-03-04T03:50:09;49.93;;;31.17;;
826;SDS011;395;48.132;11.608;2023-03-04T03:52:35;48.30;;;29.63;;
826;SDS011;395;48.132;11.608;2023-03-04T03:55:01;48.03;;;29.87;;
826;SDS011;395;48.132;11.608;2023-03-04T03:57:27;51.00;;;30.07;;
826;SDS011;395;48.132;11.608;2023-03-04T03:59:53;48.95;;;31.30;;
826;SDS011;395;48.132;11.608;2023-03-04T04:02:19;48.40;;;30.43;;
826;SDS011;395;48.132;11.608;2023-03-04T04:04:44;46.30;;;30.80;;
826;SDS011;395;48.132;11.608;2023-03-04T04:07:10;50.40;;;30.93;;
826;SDS011;395;48.132;11.608;2023-03-04T04:09:35;45.60;;;28.10;;
826;SDS011;395;48.132;11.608;2023-03-04T04:12:03;44.53;;;28.20;;
826;SDS011;395;48.132;11.608;2023-03-04T04:14:29;43.80;;;28.38;;
826;SDS011;395;48.132;11.608;2023-03-04T04:16:55;47.93;;;29.27;;
826;SDS011;395;48.132;11.608;2023-03-04T04:19:20;48.17;;;29.20;;
826;SDS011;395;48.132;11.608;2023-03-04T04:21:46;47.13;;;30.03;;
826;SDS011;395;48.132;11.608;2023-03-04T04:24:12;45.07;;;29.10;;
826;SDS011;395;48.132;11.608;2023-03-04T04:26:38;43.10;;;27.80;;
826;SDS011;395;48.132;11.608;2023-03-04T04:29:04;45.72;;;28.27;;
826;SDS011;395;48.132;11.608;2023-03-04T04:31:30;42.33;;;27.03;;
826;SDS011;395;48.132;11.608;2023-03-04T04:33:56;39.93;;;27.37;;
826;SDS011;395;48.132;11.608;2023-03-04T04:36:21;39.80;;;27.10;;
826;SDS011;395;48.132;11.608;2023-03-04T04:38:47;42.93;;;27.77;;
826;SDS011;395;48.132;11.608;2023-03-04T04:41:23;43.05;;;27.02;;
826;SDS011;395;48.132;11.608;2023-03-04T04:43:52;43.10;;;26.25;;
826;SDS011;395;48.132;11.608;2023-03-04T04:46:18;39.08;;;27.10;;
826;SDS011;395;48.132;11.608;2023-03-04T04:48:44;39.95;;;25.50;;
826;SDS011;395;48.132;11.608;2023-03-04T04:51:10;47.03;;;27.67;;
826;SDS011;395;48.132;11.608;2023-03-04T04:53:36;42.72;;;27.40;;
826;SDS011;395;48.132;11.608;2023-03-04T04:56:12;41.20;;;26.40;;
826;SDS011;395;48.132;11.608;2023-03-04T04:58:42;41.22;;;26.38;;
826;SDS011;395;48.132;11.608;2023-03-04T05:01:09;38.75;;;26.50;;
826;SDS011;395;48.132;11.608;2023-03-04T05:03:35;39.23;;;26.30;;
826;SDS011;395;48.132;11.608;2023-03-04T05:06:02;42.72;;;27.02;;
826;SDS011;395;48.132;11.608;2023-03-04T05:08:29;40.08;;;26.65;;
826;SDS011;395;48.132;11.608;2023-03-04T05:10:54;40.70;;;26.30;;
826;SDS011;395;48.132;11.608;2023-03-04T05:13:20;40.37;;;25.47;;
826;SDS011;395;48.132;11.608;2023-03-04T05:15:46;47.03;;;27.23;;
826;SDS011;395;48.132;11.608;2023-03-04T05:18:12;41.10;;;27.17;;
826;SDS011;395;48.132;11.608;2023-03-04T05:20:38;37.43;;;26.77;;
826;SDS011;395;48.132;11.608;2023-03-04T05:23:04;41.80;;;26.45;;
826;SDS011;395;48.132;11.608;2023-03-04T05:25:30;41.70;;;26.47;;
826;SDS011;395;48.132;11.608;2023-03-04T05:27:55;40.00;;;25.40;;
826;SDS011;395;48.132;11.608;2023-03-04T05:30:21;40.50;;;26.90;;
826;SDS011;395;48.132;11.608;2023-03-04T05:32:46;37.33;;;23.97;;
826;SDS011;395;48.132;11.608;2023-03-04T05:35:12;40.57;;;25.47;;
826;SDS011;395;48.132;11.608;2023-03-04T05:37:38;39.97;;;26.50;;
826;SDS011;395;48.132;11.608;2023-03-04T05:40:04;40.40;;;26.83;;
826;SDS011;395;48.132;11.608;2023-03-04T05:42:30;42.03;;;25.05;;
826;SDS011;395;48.132;11.608;2023-03-04T05:44:55;43.13;;;25.90;;
826;SDS011;395;48.132;11.608;2023-03-04T05:47:21;39.00;;;27.20;;
826;SDS011;395;48.132;11.608;2023-03-04T05:49:47;38.23;;;26.40;;
826;SDS011;395;48.132;11.608;2023-03-04T05:52:12;37.47;;;24.97;;
826;SDS011;395;48.132;11.608;2023-03-04T05:54:38;37.30;;;24.67;;
826;SDS011;395;48.132;11.608;2023-03-04T05:57:04;43.40;;;26.67;;
826;SDS011;395;48.132;11.608;2023-03-04T05:59:29;43.20;;;25.80;;
826;SDS011;395;48.132;11.608;2023-03-04T06:01:55;40.90;;;25.70;;
826;SDS011;395;48.132;11.608;2023-03-04T06:04:21;39.73;;;25.70;;
826;SDS011;395;48.132;11.608;2023-03-04T06:06:46;40.83;;;24.93;;
826;SDS011;395;48.132;11.608;2023-03-04T06:09:12;42.70;;;27.50;;
826;SDS011;395;48.132;11.608;2023-03-04T06:11:39;39.33;;;25.10;;
826;SDS011;395;48.132;11.608;2023-03-04T06:14:05;38.17;;;24.92;;
826;SDS011;395;48.132;11.608;2023-03-04T06:16:30;41.97;;;26.17;;
826;SDS011;395;48.132;11.608;2023-03-04T06:18:56;40.77;;;24.87;;
826;SDS011;395;48.132;11.608;2023-03-04T06:21:22;44.67;;;25.60;;
826;SDS011;395;48.132;11.608;2023-03-04T06:23:48;42.10;;;26.15;;
826;SDS011;395;48.132;11.608;2023-03-04T06:26:13;41.43;;;26.40;;
826;SDS011;395;48.132;11.608;2023-03-04T06:28:40;39.37;;;25.20;;
826;SDS011;395;48.132;11.608;2023-03-04T06:31:06;43.00;;;26.88;;
826;SDS011;395;48.132;11.608;2023-03-04T06:33:32;39.80;;;24.67;;
826;SDS011;395;48.132;11.608;2023-03-04T06:35:58;40.67;;;25.63;;
826;SDS011;395;48.132;11.608;2023-03-04T06:38:24;39.47;;;25.40;;
826;SDS011;395;48.132;11.608;2023-03-04T06:40:50;38.45;;;26.50;;
826;SDS011;395;48.132;11.608;2023-03-04T06:43:19;39.72;;;26.00;;
826;SDS011;395;48.132;11.608;2023-03-04T06:45:45;41.00;;;25.20;;
826;SDS011;395;48.132;11.608;2023-03-04T06:48:11;35.97;;;24.57;;
826;SDS011;395;48.132;11.608;2023-03-04T06:50:40;36.90;;;25.87;;
826;SDS011;395;48.132;11.608;2023-03-04T06:53:05;40.05;;;25.50;;
826;SDS011;395;48.132;11.608;2023-03-04T06:55:31;39.47;;;26.67;;
826;SDS011;395;48.132;11.608;2023-03-04T06:57:56;42.30;;;26.60;;
826;SDS011;395;48.132;11.608;2023-03-04T07:00:22;41.17;;;26.77;;
826;SDS011;395;48.132;11.608;2023-03-04T07:02:48;43.30;;;25.70;;
826;SDS011;395;48.132;11.608;2023-03-04T07:05:14;38.73;;;25.70;;
826;SDS011;395;48.132;11.608;2023-03-04T07:07:41;39.10;;;26.60;;
826;SDS011;395;48.132;11.608;2023-03-04T07:10:07;38.08;;;25.20;;
826;SDS011;395;48.132;11.608;2023-03-04T07:12:34;39.80;;;25.40;;
826;SDS011;395;48.132;11.608;2023-03-04T07:15:00;40.00;;;24.73;;
826;SDS011;395;48.132;11.608;2023-03-04T07:17:26;37.20;;;25.80;;
826;SDS011;395;48.132;11.608;2023-03-04T07:19:51;43.67;;;28.80;;
826;SDS011;395;48.132;11.608;2023-03-04T07:22:17;39.20;;;24.80;;
826;SDS011;395;48.132;11.608;2023-03-04T07:24:42;41.10;;;26.70;;
826;SDS011;395;48.132;11.608;2023-03-04T07:27:08;40.43;;;26.23;;
826;SDS011;395;48.132;11.608;2023-03-04T07:29:34;44.80;;;27.50;;
826;SDS011;395;48.132;11.608;2023-03-04T07:31:59;41.33;;;27.50;;
826;SDS011;395;48.132;11.608;2023-03-04T07:34:25;42.60;;;27.47;;
826;SDS011;395;48.132;11.608;2023-03-04T07:36:51;41.30;;;25.47;;
826;SDS011;395;48.132;11.608;2023-03-04T07:39:16;43.67;;;26.97;;
826;SDS011;395;48.132;11.608;2023-03-04T07:41:42;36.43;;;24.10;;
826;SDS011;395;48.132;11.608;2023-03-04T07:44:09;41.73;;;26.47;;
826;SDS011;395;48.132;11.608;2023-03-04T07:46:36;44.17;;;27.40;;
826;SDS011;395;48.132;11.608;2023-03-04T07:49:02;40.43;;;26.47;;
826;SDS011;395;48.132;11.608;2023-03-04T07:51:28;39.15;;;27.08;;
826;SDS011;395;48.132;11.608;2023-03-04T07:53:58;39.20;;;27.02;;
826;SDS011;395;48.132;11.608;2023-03-04T07:56:29;44.70;;;26.95;;
826;SDS011;395;48.132;11.608;2023-03-04T07:58:56;41.60;;;26.30;;
826;SDS011;395;48.132;11.608;2023-03-04T08:01:28;42.65;;;26.58;;
826;SDS011;395;48.132;11.608;2023-03-04T08:03:59;37.55;;;26.17;;
826;SDS011;395;48.132;11.608;2023-03-04T08:06:28;39.88;;;26.48;;
826;SDS011;395;48.132;11.608;2023-03-04T08:08:55;38.45;;;25.23;;
826;SDS011;395;48.132;11.608;2023-03-04T08:11:23;46.88;;;29.05;;
826;SDS011;395;48.132;11.608;2023-03-04T08:13:49;43.03;;;26.63;;
826;SDS011;395;48.132;11.608;2023-03-04T08:16:15;39.10;;;25.57;;
826;SDS011;395;48.132;11.608;2023-03-04T08:18:42;42.30;;;28.75;;
826;SDS011;395;48.132;11.608;2023-03-04T08:21:11;40.80;;;26.80;;
826;SDS011;395;48.132;11.608;2023-03-04T08:23:36;44.05;;;27.08;;
826;SDS011;395;48.132;11.608;2023-03-04T08:26:06;46.70;;;27.47;;
826;SDS011;395;48.132;11.608;2023-03-04T08:28:34;46.05;;;27.25;;
826;SDS011;395;48.132;11.608;2023-03-04T08:31:00;46.67;;;27.93;;
826;SDS011;395;48.132;11.608;2023-03-04T08:33:25;42.17;;;27.37;;
826;SDS011;395;48.132;11.608;2023-03-04T08:35:51;44.50;;;27.13;;
826;SDS011;395;48.132;11.608;2023-03-04T08:38:17;39.00;;;26.80;;
826;SDS011;395;48.132;11.608;2023-03-04T08:40:42;45.33;;;26.93;;
826;SDS011;395;48.132;11.608;2023-03-04T08:43:08;42.90;;;26.93;;
826;SDS011;395;48.132;11.608;2023-03-04T08:45:34;40.37;;;26.17;;
826;SDS011;395;48.132;11.608;2023-03-04T08:48:01;41.10;;;27.23;;
826;SDS011;395;48.132;11.608;2023-03-04T08:50:27;38.47;;;25.75;;
826;SDS011;395;48.132;11.608;2023-03-04T08:52:53;42.10;;;27.47;;
826;SDS011;395;48.132;11.608;2023-03-04T08:55:18;40.07;;;26.47;;
826;SDS011;395;48.132;11.608;2023-03-04T08:57:44;41.53;;;26.10;;
826;SDS011;395;48.132;11.608;2023-03-04T09:00:10;40.60;;;26.10;;
826;SDS011;395;48.132;11.608;2023-03-04T09:02:37;41.10;;;24.20;;
826;SDS011;395;48.132;11.608;2023-03-04T09:05:02;40.60;;;25.43;;
826;SDS011;395;48.132;11.608;2023-03-04T09:07:29;41.25;;;27.17;;
826;SDS011;395;48.132;11.608;2023-03-04T09:09:54;41.50;;;26.27;;
826;SDS011;395;48.132;11.608;2023-03-04T09:12:20;37.73;;;25.60;;
826;SDS011;395;48.132;11.608;2023-03-04T09:14:45;37.90;;;24.33;;
826;SDS011;395;48.132;11.608;2023-03-04T09:17:11;39.30;;;27.17;;
826;SDS011;395;48.132;11.608;2023-03-04T09:19:37;38.20;;;25.77;;
826;SDS011;395;48.132;11.608;2023-03-04T09:22:02;39.97;;;26.13;;
826;SDS011;395;48.132;11.608;2023-03-04T09:24:28;38.30;;;23.60;;
826;SDS011;395;48.132;11.608;2023-03-04T09:26:54;41.57;;;25.53;;
826;SDS011;395;48.132;11.608;2023-03-04T09:29:20;38.28;;;24.23;;
826;SDS011;395;48.132;11.608;2023-03-04T09:31:46;38.00;;;24.75;;
826;SDS011;395;48.132;11.608;2023-03-04T09:34:12;37.73;;;23.10;;
826;SDS011;395;48.132;11.608;2023-03-04T09:36:38;37.10;;;23.57;;
826;SDS011;395;48.132;11.608;2023-03-04T09:39:04;34.07;;;20.80;;
826;SDS011;395;48.132;11.608;2023-03-04T09:41:43;33.35;;;20.52;;
826;SDS011;395;48.132;11.608;2023-03-04T09:44:22;36.40;;;23.65;;
826;SDS011;395;48.132;11.608;2023-03-04T09:46:51;32.13;;;20.98;;
826;SDS011;395;48.132;11.608;2023-03-04T09:49:23;32.92;;;22.13;;
826;SDS011;395;48.132;11.608;2023-03-04T09:57:14;31.40;;;20.08;;
826;SDS011;395;48.132;11.608;2023-03-04T09:59:43;29.38;;;19.75;;
826;SDS011;395;48.132;11.608;2023-03-04T10:02:44;34.03;;;21.90;;
826;SDS011;395;48.132;11.608;2023-03-04T10:05:26;32.83;;;21.33;;
826;SDS011;395;48.132;11.608;2023-03-04T10:07:56;35.83;;;22.92;;
826;SDS011;395;48.132;11.608;2023-03-04T10:12:54;39.67;;;23.45;;
826;SDS011;395;48.132;11.608;2023-03-04T10:18:00;33.70;;;22.35;;
826;SDS011;395;48.132;11.608;2023-03-04T10:20:46;33.60;;;23.13;;
826;SDS011;395;48.132;11.608;2023-03-04T10:23:23;34.00;;;22.05;;
826;SDS011;395;48.132;11.608;2023-03-04T10:25:50;45.38;;;24.58;;
826;SDS011;395;48.132;11.608;2023-03-04T10:28:25;36.03;;;22.02;;
826;SDS011;395;48.132;11.608;2023-03-04T10:31:08;34.92;;;24.27;;
826;SDS011;395;48.132;11.608;2023-03-04T10:33:42;37.17;;;23.90;;
826;SDS011;395;48.132;11.608;2023-03-04T10:38:57;37.15;;;23.42;;
826;SDS011;395;48.132;11.608;2023-03-04T10:41:23;36.58;;;22.30;;
826;SDS011;395;48.132;11.608;2023-03-04T10:46:35;32.30;;;21.10;;
826;SDS011;395;48.132;11.608;2023-03-04T10:49:05;39.53;;;21.92;;
826;SDS011;395;48.132;11.608;2023-03-04T10:51:31;34.70;;;20.90;;
826;SDS011;395;48.132;11.608;2023-03-04T10:56:51;35.70;;;21.13;;
826;SDS011;395;48.132;11.608;2023-03-04T11:02:12;31.60;;;18.70;;
826;SDS011;395;48.132;11.608;2023-03-04T11:04:41;26.77;;;18.90;;
826;SDS011;395;48.132;11.608;2023-03-04T11:07:09;28.10;;;19.40;;
826;SDS011;395;48.132;11.608;2023-03-04T11:09:35;29.70;;;18.98;;
826;SDS011;395;48.132;11.608;2023-03-04T11:12:05;29.40;;;19.95;;
826;SDS011;395;48.132;11.608;2023-03-04T11:14:36;27.15;;;19.85;;
826;SDS011;395;48.132;11.608;2023-03-04T11:17:24;30.92;;;21.15;;
826;SDS011;395;48.132;11.608;2023-03-04T11:20:35;31.30;;;21.33;;
826;SDS011;395;48.132;11.608;2023-03-04T11:22:47;30.90;;;20.30;;
826;SDS011;395;48.132;11.608;2023-03-04T11:25:24;36.47;;;21.17;;
826;SDS011;395;48.132;11.608;2023-03-04T11:27:57;31.38;;;22.02;;
826;SDS011;395;48.132;11.608;2023-03-04T11:33:21;31.60;;;22.40;;
826;SDS011;395;48.132;11.608;2023-03-04T11:35:50;31.23;;;21.17;;
826;SDS011;395;48.132;11.608;2023-03-04T11:38:30;33.03;;;21.77;;
826;SDS011;395;48.132;11.608;2023-03-04T11:41:02;34.47;;;21.58;;
826;SDS011;395;48.132;11.608;2023-03-04T11:51:22;32.45;;;23.50;;
826;SDS011;395;48.132;11.608;2023-03-04T11:56:58;34.70;;;21.65;;
826;SDS011;395;48.132;11.608;2023-03-04T12:02:22;36.78;;;22.98;;
826;SDS011;395;48.132;11.608;2023-03-04T12:05:22;32.17;;;22.67;;
826;SDS011;395;48.132;11.608;2023-03-04T12:32:40;32.95;;;22.05;;
826;SDS011;395;48.132;11.608;2023-03-04T12:43:18;34.05;;;23.00;;
826;SDS011;395;48.132;11.608;2023-03-04T12:51:52;31.73;;;21.00;;
826;SDS011;395;48.132;11.608;2023-03-04T12:57:28;32.65;;;20.30;;
826;SDS011;395;48.132;11.608;2023-03-04T13:03:22;30.90;;;19.92;;
826;SDS011;395;48.132;11.608;2023-03-04T13:14:34;24.15;;;16.67;;
826;SDS011;395;48.132;11.608;2023-03-04T13:20:04;24.13;;;16.75;;
826;SDS011;395;48.132;11.608;2023-03-04T13:22:28;28.35;;;18.10;;
826;SDS011;395;48.132;11.608;2023-03-04T13:24:58;23.45;;;17.05;;
826;SDS011;395;48.132;11.608;2023-03-04T13:27:48;25.00;;;17.13;;
826;SDS011;395;48.132;11.608;2023-03-04T13:46:57;27.73;;;18.17;;
826;SDS011;395;48.132;11.608;2023-03-04T13:49:33;27.38;;;18.13;;
826;SDS011;395;48.132;11.608;2023-03-04T13:52:25;25.73;;;17.77;;
826;SDS011;395;48.132;11.608;2023-03-04T13:57:58;27.92;;;17.55;;
826;SDS011;395;48.132;11.608;2023-03-04T14:00:25;28.47;;;18.60;;
826;SDS011;395;48.132;11.608;2023-03-04T14:02:51;23.13;;;17.13;;
826;SDS011;395;48.132;11.608;2023-03-04T14:05:17;24.97;;;17.87;;
826;SDS011;395;48.132;11.608;2023-03-04T14:07:43;23.60;;;17.10;;
826;SDS011;395;48.132;11.608;2023-03-04T14:12:49;25.10;;;17.52;;
826;SDS011;395;48.132;11.608;2023-03-04T14:15:26;24.53;;;18.33;;
826;SDS011;395;48.132;11.608;2023-03-04T14:17:56;25.25;;;16.85;;
826;SDS011;395;48.132;11.608;2023-03-04T14:20:31;26.87;;;17.40;;
826;SDS011;395;48.132;11.608;2023-03-04T14:22:59;24.95;;;15.57;;
826;SDS011;395;48.132;11.608;2023-03-04T14:25:27;22.17;;;16.02;;
826;SDS011;395;48.132;11.608;2023-03-04T14:28:11;25.73;;;16.75;;
826;SDS011;395;48.132;11.608;2023-03-04T14:30:41;27.70;;;17.83;;
826;SDS011;395;48.132;11.608;2023-03-04T14:33:15;22.60;;;16.35;;
826;SDS011;395;48.132;11.608;2023-03-04T14:35:47;35.30;;;17.13;;
826;SDS011;395;48.132;11.608;2023-03-04T14:38:26;22.10;;;15.68;;
826;SDS011;395;48.132;11.608;2023-03-04T14:40:59;23.92;;;15.40;;
826;SDS011;395;48.132;11.608;2023-03-04T14:43:33;21.80;;;15.73;;
826;SDS011;395;48.132;11.608;2023-03-04T14:46:05;18.48;;;14.02;;
826;SDS011;395;48.132;11.608;2023-03-04T14:48:35;23.85;;;15.52;;
826;SDS011;395;48.132;11.608;2023-03-04T14:51:01;22.23;;;15.95;;
826;SDS011;395;48.132;11.608;2023-03-04T14:53:28;21.60;;;15.00;;
826;SDS011;395;48.132;11.608;2023-03-04T14:58:33;20.58;;;14.85;;
826;SDS011;395;48.132;11.608;2023-03-04T15:03:56;20.17;;;12.95;;
826;SDS011;395;48.132;11.608;2023-03-04T15:06:27;22.92;;;14.73;;
826;SDS011;395;48.132;11.608;2023-03-04T15:09:05;20.60;;;14.40;;
826;SDS011;395;48.132;11.608;2023-03-04T15:11:49;23.33;;;13.55;;
826;SDS011;395;48.132;11.608;2023-03-04T15:17:25;22.00;;;13.57;;
826;SDS011;395;48.132;11.608;2023-03-04T15:20:00;21.37;;;13.90;;
826;SDS011;395;48.132;11.608;2023-03-04T15:25:13;22.33;;;13.43;;
826;SDS011;395;48.132;11.608;2023-03-04T15:27:40;20.08;;;13.25;;
826;SDS011;395;48.132;11.608;2023-03-04T15:30:12;20.25;;;12.95;;
826;SDS011;395;48.132;11.608;2023-03-04T15:32:39;18.98;;;13.68;;
826;SDS011;395;48.132;11.608;2023-03-04T15:35:05;18.63;;;12.97;;
826;SDS011;395;48.132;11.608;2023-03-04T15:37:33;19.00;;;13.40;;
826;SDS011;395;48.132;11.608;2023-03-04T15:39:59;20.20;;;14.07;;
826;SDS011;395;48.132;11.608;2023-03-04T15:42:27;17.63;;;12.98;;
826;SDS011;395;48.132;11.608;2023-03-04T15:44:53;18.55;;;12.25;;
826;SDS011;395;48.132;11.608;2023-03-04T15:47:18;18.97;;;12.53;;
826;SDS011;395;48.132;11.608;2023-03-04T15:49:44;20.67;;;13.37;;
826;SDS011;395;48.132;11.608;2023-03-04T15:52:16;18.63;;;12.80;;
826;SDS011;395;48.132;11.608;2023-03-04T15:54:46;20.65;;;13.38;;
826;SDS011;395;48.132;11.608;2023-03-04T15:57:23;18.70;;;12.98;;
826;SDS011;395;48.132;11.608;2023-03-04T15:59:50;24.50;;;14.18;;
826;SDS011;395;48.132;11.608;2023-03-04T16:02:20;19.35;;;12.55;;
826;SDS011;395;48.132;11.608;2023-03-04T16:04:49;17.17;;;12.18;;
826;SDS011;395;48.132;11.608;2023-03-04T16:07:19;20.45;;;12.10;;
826;SDS011;395;48.132;11.608;2023-03-04T16:09:48;20.55;;;13.98;;
826;SDS011;395;48.132;11.608;2023-03-04T16:12:23;17.55;;;12.98;;
826;SDS011;395;48.132;11.608;2023-03-04T16:14:50;19.85;;;12.82;;
826;SDS011;395;48.132;11.608;2023-03-04T16:17:16;18.23;;;12.52;;
826;SDS011;395;48.132;11.608;2023-03-04T16:19:43;22.90;;;13.90;;
826;SDS011;395;48.132;11.608;2023-03-04T16:22:11;16.92;;;12.32;;
826;SDS011;395;48.132;11.608;2023-03-04T16:24:42;22.27;;;13.57;;
826;SDS011;395;48.132;11.608;2023-03-04T16:27:14;19.58;;;12.68;;
826;SDS011;395;48.132;11.608;2023-03-04T16:29:42;18.60;;;11.77;;
826;SDS011;395;48.132;11.608;2023-03-04T16:32:08;20.95;;;14.60;;
826;SDS011;395;48.132;11.608;2023-03-04T16:34:34;19.80;;;12.77;;
826;SDS011;395;48.132;11.608;2023-03-04T16:37:01;20.67;;;13.43;;
826;SDS011;395;48.132;11.608;2023-03-04T16:39:35;20.93;;;12.63;;
826;SDS011;395;48.132;11.608;2023-03-04T16:42:01;17.40;;;12.70;;
826;SDS011;395;48.132;11.608;2023-03-04T16:44:27;21.10;;;13.90;;
826;SDS011;395;48.132;11.608;2023-03-04T16:46:52;21.17;;;13.30;;
826;SDS011;395;48.132;11.608;2023-03-04T16:49:18;18.97;;;13.00;;
826;SDS011;395;48.132;11.608;2023-03-04T16:51:44;20.37;;;12.27;;
826;SDS011;395;48.132;11.608;2023-03-04T16:54:13;20.00;;;12.52;;
826;SDS011;395;48.132;11.608;2023-03-04T16:56:51;19.67;;;13.02;;
826;SDS011;395;48.132;11.608;2023-03-04T16:59:17;19.27;;;14.27;;
826;SDS011;395;48.132;11.608;2023-03-04T17:01:43;21.60;;;13.57;;
826;SDS011;395;48.132;11.608;2023-03-04T17:04:08;23.00;;;13.83;;
826;SDS011;395;48.132;11.608;2023-03-04T17:06:34;20.73;;;13.30;;
826;SDS011;395;48.132;11.608;2023-03-04T17:09:03;17.48;;;12.25;;
826;SDS011;395;48.132;11.608;2023-03-04T17:11:29;20.77;;;12.77;;
826;SDS011;395;48.132;11.608;2023-03-04T17:13:55;17.60;;;12.97;;
826;SDS011;395;48.132;11.608;2023-03-04T17:16:21;22.27;;;14.83;;
826;SDS011;395;48.132;11.608;2023-03-04T17:18:47;24.17;;;15.45;;